Time;durP1;ratioP1;P1;durP2;ratioP2;P2;SDS_P1;SDS_P2;PMS_P1;PMS_P2;Temp;Humidity;BMP_temperature;BMP_pressure;BME280_temperature;BME280_humidity;BME280_pressure;Samples;Min_cycle;Max_cycle;Signal;HPM_P1;HPM_P2
2022/09/29 00:02:08;;;;;;;9.27;6.23;;;;;11.70;97415.00;;;;16570786;28;20224;-77
2022/09/29 00:10:12;;;;;;;7.33;6.70;;;;;11.90;97418.00;;;;16570161;28;20249;-77
2022/09/29 00:18:14;;;;;;;7.27;6.67;;;;;11.90;97409.00;;;;16572959;28;20207;-78
2022/09/29 00:26:19;;;;;;;7.87;7.23;;;;;11.80;97408.00;;;;16560751;28;20310;-76
2022/09/29 00:34:22;;;;;;;7.90;6.77;;;;;11.80;97399.00;;;;16572501;28;20271;-78
2022/09/29 00:42:26;;;;;;;8.20;6.87;;;;;11.80;97399.00;;;;16564807;28;20224;-77
2022/09/29 00:50:39;;;;;;;6.87;6.23;;;;;11.80;97394.00;;;;16576285;28;20797;-77
2022/09/29 00:58:45;;;;;;;8.60;6.03;;;;;12.00;97387.00;;;;16563590;28;20207;-75
2022/09/29 01:06:53;;;;;;;6.90;5.70;;;;;12.00;97390.00;;;;16559823;28;20594;-75
2022/09/29 01:14:57;;;;;;;5.10;4.60;;;;;11.90;97383.00;;;;16557812;28;20335;-75
2022/09/29 01:23:20;;;;;;;9.07;4.80;;;;;11.30;97378.00;;;;16551439;28;20227;-78
2022/09/29 01:31:30;;;;;;;5.90;5.40;;;;;11.60;97373.00;;;;16544669;28;20218;-78
2022/09/29 01:39:36;;;;;;;8.27;6.90;;;;;11.90;97376.00;;;;16548462;28;20240;-75
2022/09/29 01:47:42;;;;;;;7.27;6.40;;;;;12.10;97370.00;;;;16561845;28;20370;-75
2022/09/29 01:55:47;;;;;;;7.07;6.37;;;;;12.30;97376.00;;;;16543391;28;20823;-75
2022/09/29 02:03:54;;;;;;;8.20;7.40;;;;;12.10;97386.00;;;;16553876;28;20230;-76
2022/09/29 02:11:58;;;;;;;7.30;6.57;;;;;12.00;97392.00;;;;16570139;28;20634;-76
2022/09/29 02:20:03;;;;;;;8.53;7.73;;;;;12.00;97395.00;;;;16570009;28;20297;-76
2022/09/29 02:28:06;;;;;;;9.10;7.33;;;;;12.10;97400.00;;;;16563538;28;20228;-76
2022/09/29 02:36:18;;;;;;;7.50;6.80;;;;;12.20;97393.00;;;;16551324;28;20661;-76
2022/09/29 02:44:41;;;;;;;7.90;7.10;;;;;12.00;97390.00;;;;16551840;28;20254;-76
2022/09/29 02:52:49;;;;;;;10.37;7.27;;;;;12.10;97392.00;;;;16543348;28;20250;-76
2022/09/29 03:00:53;;;;;;;7.73;6.60;;;;;12.10;97374.00;;;;16543760;28;20265;-77
2022/09/29 03:08:57;;;;;;;10.67;7.20;;;;;12.20;97378.00;;;;16542187;28;20208;-76
2022/09/29 03:17:00;;;;;;;9.53;8.47;;;;;12.20;97374.00;;;;16545923;28;20354;-76
2022/09/29 03:25:04;;;;;;;7.23;6.50;;;;;12.20;97357.00;;;;16571035;28;20311;-76
2022/09/29 03:33:07;;;;;;;5.90;5.30;;;;;11.60;97361.00;;;;16562670;28;20219;-76
2022/09/29 03:41:11;;;;;;;7.50;5.40;;;;;11.70;97359.00;;;;16541331;28;20246;-76
2022/09/29 03:49:14;;;;;;;6.43;5.90;;;;;11.60;97352.00;;;;16556451;28;20274;-77
2022/09/29 03:57:18;;;;;;;7.90;5.10;;;;;11.00;97352.00;;;;16553799;28;20220;-76
2022/09/29 04:05:21;;;;;;;5.30;4.80;;;;;10.50;97359.00;;;;16550769;28;20310;-77
2022/09/29 04:13:24;;;;;;;6.87;4.93;;;;;9.90;97363.00;;;;16544523;28;20238;-77
2022/09/29 04:21:27;;;;;;;5.50;5.10;;;;;9.80;97360.00;;;;16545556;28;20290;-76
2022/09/29 04:29:31;;;;;;;6.73;5.20;;;;;10.50;97364.00;;;;16548099;28;20243;-77
2022/09/29 04:37:33;;;;;;;5.57;5.17;;;;;9.50;97379.00;;;;16548988;28;20274;-76
2022/09/29 04:45:37;;;;;;;5.80;5.10;;;;;9.30;97384.00;;;;16552322;28;20707;-77
2022/09/29 04:53:40;;;;;;;9.00;8.17;;;;;10.10;97388.00;;;;16545032;28;20570;-77
2022/09/29 05:01:43;;;;;;;5.87;5.40;;;;;9.70;97394.00;;;;16545206;28;20227;-77
2022/09/29 05:09:46;;;;;;;7.10;6.40;;;;;10.30;97386.00;;;;16561354;28;20817;-78
2022/09/29 05:17:50;;;;;;;6.47;5.40;;;;;9.10;97407.00;;;;16556091;28;20203;-76
2022/09/29 05:25:53;;;;;;;7.60;5.37;;;;;9.50;97420.00;;;;16557714;28;20226;-77
2022/09/29 05:33:57;;;;;;;5.10;4.60;;;;;9.30;97419.00;;;;16546292;28;20498;-78
2022/09/29 05:42:00;;;;;;;3.97;3.57;;;;;18.00;97367.00;;;;16534980;28;20695;-70
2022/09/29 05:50:04;;;;;;;5.63;5.13;;;;;19.20;97337.00;;;;16547888;28;20214;-71
2022/09/29 05:58:07;;;;;;;4.60;4.20;;;;;12.20;97375.00;;;;16558517;28;20738;-81
2022/09/29 06:06:13;;;;;;;5.20;4.80;;;;;10.40;97404.00;;;;16551936;28;20238;-78
2022/09/29 06:14:16;;;;;;;7.13;5.97;;;;;10.10;97407.00;;;;16547190;28;20308;-79
2022/09/29 06:22:20;;;;;;;5.53;5.03;;;;;10.10;97417.00;;;;16553732;28;20269;-77
2022/09/29 06:30:22;;;;;;;7.27;6.07;;;;;10.30;97417.00;;;;16544387;28;20292;-78
2022/09/29 06:38:26;;;;;;;8.67;5.90;;;;;10.60;97431.00;;;;16545451;28;20204;-77
2022/09/29 06:46:28;;;;;;;6.90;5.00;;;;;10.60;97436.00;;;;16551755;28;20244;-78
2022/09/29 06:54:32;;;;;;;7.07;6.43;;;;;10.50;97439.00;;;;16545184;28;20357;-77
2022/09/29 07:02:35;;;;;;;8.10;5.87;;;;;11.10;97434.00;;;;16537143;28;20233;-78
2022/09/29 07:10:39;;;;;;;7.43;6.63;;;;;10.90;97436.00;;;;16550911;28;20238;-78
2022/09/29 07:18:42;;;;;;;10.90;7.67;;;;;11.40;97429.00;;;;16538758;28;20654;-77
2022/09/29 07:26:46;;;;;;;7.80;7.10;;;;;12.00;97435.00;;;;16550238;28;20356;-78
2022/09/29 07:34:48;;;;;;;8.07;7.30;;;;;12.40;97426.00;;;;16558539;28;20220;-79
2022/09/29 07:42:52;;;;;;;6.50;5.90;;;;;12.50;97431.00;;;;16554756;28;20243;-78
2022/09/29 07:51:01;;;;;;;12.27;5.90;;;;;14.10;97420.00;;;;16543249;28;20454;-78
2022/09/29 07:59:05;;;;;;;7.17;6.53;;;;;14.70;97415.00;;;;16535175;28;20233;-79
2022/09/29 08:07:07;;;;;;;7.00;6.30;;;;;14.50;97424.00;;;;16567549;28;20230;-77
2022/09/29 08:15:11;;;;;;;6.77;5.87;;;;;14.90;97413.00;;;;16565930;28;20844;-77
2022/09/29 08:23:14;;;;;;;6.90;4.93;;;;;15.40;97413.00;;;;16550279;28;20313;-77
2022/09/29 08:31:20;;;;;;;6.43;5.83;;;;;15.00;97420.00;;;;16525976;28;20791;-77
2022/09/29 08:39:22;;;;;;;9.13;6.87;;;;;15.00;97439.00;;;;16549785;28;20234;-77
2022/09/29 08:47:29;;;;;;;8.87;6.10;;;;;15.40;97434.00;;;;16532684;28;20238;-76
2022/09/29 08:55:39;;;;;;;7.03;5.70;;;;;15.60;97434.00;;;;16548043;28;20641;-76
2022/09/29 09:04:09;;;;;;;5.23;4.83;;;;;16.30;97448.00;;;;16533504;28;20238;-76
2022/09/29 09:12:23;;;;;;;8.03;6.17;;;;;17.00;97428.00;;;;16553336;28;20234;-76
2022/09/29 09:20:33;;;;;;;5.73;5.03;;;;;16.40;97442.00;;;;16537221;28;20261;-77
2022/09/29 09:28:40;;;;;;;5.03;4.50;;;;;17.00;97450.00;;;;16536697;28;20225;-77
2022/09/29 09:36:47;;;;;;;5.23;3.50;;;;;16.70;97465.00;;;;16537060;28;20692;-79
2022/09/29 09:44:53;;;;;;;5.77;3.57;;;;;15.70;97477.00;;;;16585581;28;20265;-76
2022/09/29 09:52:59;;;;;;;4.47;4.07;;;;;16.60;97466.00;;;;16564664;28;20260;-77
2022/09/29 10:01:04;;;;;;;14.00;3.67;;;;;17.00;97456.00;;;;16538436;28;20266;-79
2022/09/29 10:09:12;;;;;;;3.90;3.17;;;;;17.60;97459.00;;;;16555061;28;20652;-80
2022/09/29 10:17:16;;;;;;;9.43;4.30;;;;;20.50;97446.00;;;;16541962;28;20219;-71
2022/09/29 10:25:20;;;;;;;3.10;2.23;;;;;20.60;97440.00;;;;16539466;28;20223;-71
2022/09/29 10:33:25;;;;;;;2.63;2.10;;;;;20.70;97438.00;;;;16545110;28;20227;-71
2022/09/29 10:41:40;;;;;;;4.30;2.80;;;;;21.00;97445.00;;;;16555496;28;20226;-72
2022/09/29 10:49:43;;;;;;;3.20;2.37;;;;;21.10;97441.00;;;;16533837;28;20759;-71
2022/09/29 10:57:49;;;;;;;2.60;2.20;;;;;21.20;97455.00;;;;16537890;28;20686;-71
2022/09/29 11:05:54;;;;;;;3.80;2.07;;;;;20.90;97452.00;;;;16545685;28;20285;-71
2022/09/29 11:13:58;;;;;;;5.70;2.70;;;;;20.40;97447.00;;;;16545076;28;20584;-76
2022/09/29 11:22:48;;;;;;;2.50;2.30;;;;;19.60;97456.00;;;;16552565;28;20279;-76
2022/09/29 11:31:01;;;;;;;5.10;2.73;;;;;16.80;97473.00;;;;16456703;28;20246;-76
2022/09/29 11:39:29;;;;;;;3.50;1.83;;;;;19.50;97465.00;;;;16658338;23;20570;-50
2022/09/29 11:47:50;;;;;;;3.20;2.63;;;;;19.10;97474.00;;;;16637698;28;20314;-50
2022/09/29 11:56:09;;;;;;;5.73;2.77;;;;;19.50;97470.00;;;;16623051;28;20285;-50
2022/09/29 12:04:20;;;;;;;3.83;1.77;;;;;20.80;97460.00;;;;16623676;28;20233;-50
2022/09/29 12:12:27;;;;;;;4.10;1.73;;;;;20.80;97446.00;;;;16631256;28;20215;-50
2022/09/29 12:20:33;;;;;;;3.00;1.87;;;;;19.70;97452.00;;;;16637752;28;20207;-50
2022/09/29 12:28:40;;;;;;;4.60;1.80;;;;;20.00;97442.00;;;;16637367;28;20318;-50
2022/09/29 12:36:52;;;;;;;2.30;1.53;;;;;21.80;97437.00;;;;16618742;28;21057;-49
2022/09/29 12:44:58;;;;;;;2.00;1.67;;;;;22.10;97441.00;;;;16639325;28;20269;-47
2022/09/29 12:53:08;;;;;;;8.10;2.70;;;;;23.20;97437.00;;;;16612546;28;20226;-48
2022/09/29 13:01:22;;;;;;;8.83;2.47;;;;;21.70;97439.00;;;;16614487;28;20203;-48
2022/09/29 13:09:40;;;;;;;7.60;2.30;;;;;22.20;97445.00;;;;16594306;28;20734;-47
2022/09/29 13:17:56;;;;;;;2.77;1.57;;;;;21.30;97452.00;;;;16599825;28;20217;-48
2022/09/29 13:26:16;;;;;;;4.90;1.63;;;;;20.10;97460.00;;;;16613894;28;20237;-47
2022/09/29 13:34:24;;;;;;;4.63;2.33;;;;;20.90;97462.00;;;;16607604;28;20215;-48
2022/09/29 13:42:42;;;;;;;5.87;2.97;;;;;21.00;97462.00;;;;16600394;28;20586;-48
2022/09/29 13:50:46;;;;;;;2.03;1.50;;;;;19.60;97471.00;;;;16601391;28;20207;-47
2022/09/29 13:59:00;;;;;;;2.27;1.50;;;;;19.40;97475.00;;;;16619605;28;20286;-49
2022/09/29 14:07:04;;;;;;;3.23;1.50;;;;;20.70;97474.00;;;;16618012;28;20230;-48
2022/09/29 14:15:11;;;;;;;9.67;1.70;;;;;20.80;97486.00;;;;16627851;28;20222;-46
2022/09/29 14:23:14;;;;;;;3.80;2.10;;;;;18.30;97503.00;;;;16622524;28;20306;-47
2022/09/29 14:31:23;;;;;;;3.43;2.10;;;;;19.70;97504.00;;;;16604128;28;20292;-47
2022/09/29 14:39:26;;;;;;;2.60;1.60;;;;;19.40;97517.00;;;;16611754;28;20249;-45
2022/09/29 14:56:08;;;;;;;2.83;2.17;;;;;17.20;97533.00;;;;16615020;28;20582;-50
2022/09/29 15:04:14;;;;;;;2.50;2.30;;;;;17.30;97538.00;;;;16587758;28;20230;-50
2022/09/29 15:12:19;;;;;;;5.90;2.50;;;;;18.40;97531.00;;;;16624843;28;20222;-50
2022/09/29 15:20:29;;;;;;;5.20;2.80;;;;;17.50;97535.00;;;;16601931;28;20683;-51
2022/09/29 15:28:33;;;;;;;14.10;3.80;;;;;17.90;97545.00;;;;16602997;28;20313;-50
2022/09/29 15:36:39;;;;;;;2.47;2.27;;;;;18.10;97547.00;;;;16588448;28;20694;-50
2022/09/29 15:44:47;;;;;;;3.67;2.27;;;;;18.10;97551.00;;;;16614279;28;20237;-51
2022/09/29 15:52:51;;;;;;;3.53;2.73;;;;;18.20;97564.00;;;;16615611;28;20219;-51
2022/09/29 16:01:05;;;;;;;6.80;4.50;;;;;18.10;97577.00;;;;16601129;28;20286;-51
2022/09/29 16:09:17;;;;;;;8.53;3.07;;;;;17.00;97577.00;;;;16603910;28;20223;-50
2022/09/29 16:17:19;;;;;;;6.07;4.07;;;;;17.80;97583.00;;;;16613706;28;20215;-50
2022/09/29 16:25:26;;;;;;;4.50;2.80;;;;;17.40;97588.00;;;;16618117;28;20246;-50
2022/09/29 16:33:29;;;;;;;4.80;2.23;;;;;17.90;97581.00;;;;16620996;28;20230;-50
2022/09/29 16:41:36;;;;;;;4.57;2.70;;;;;17.40;97600.00;;;;16637300;28;20566;-50
2022/09/29 16:49:46;;;;;;;7.10;3.53;;;;;16.20;97624.00;;;;16625683;28;20319;-51
2022/09/29 16:57:55;;;;;;;4.50;2.73;;;;;15.90;97636.00;;;;16635158;28;20235;-50
2022/09/29 17:05:58;;;;;;;6.03;3.23;;;;;15.40;97646.00;;;;16627136;28;20223;-49
2022/09/29 17:14:02;;;;;;;4.63;3.10;;;;;14.60;97657.00;;;;16610849;28;20338;-50
2022/09/29 17:22:12;;;;;;;6.20;3.00;;;;;14.00;97677.00;;;;16629450;28;20199;-51
2022/09/29 17:30:19;;;;;;;13.40;7.77;;;;;13.90;97693.00;;;;16614362;28;20224;-50
2022/09/29 17:38:22;;;;;;;8.40;7.50;;;;;13.60;97705.00;;;;16612637;28;20726;-48
2022/09/29 17:46:26;;;;;;;9.33;6.07;;;;;13.40;97717.00;;;;16610453;28;20243;-50
2022/09/29 17:54:28;;;;;;;8.20;4.70;;;;;13.20;97731.00;;;;16610661;28;20313;-50
2022/09/29 18:02:32;;;;;;;6.07;4.90;;;;;13.20;97728.00;;;;16599468;28;20230;-50
2022/09/29 18:10:38;;;;;;;4.17;3.77;;;;;12.90;97740.00;;;;16605557;28;20348;-48
2022/09/29 18:18:42;;;;;;;4.20;3.67;;;;;12.70;97747.00;;;;16604162;28;20220;-48
2022/09/29 18:26:45;;;;;;;6.10;3.40;;;;;13.00;97744.00;;;;16602289;28;20322;-49
2022/09/29 18:34:50;;;;;;;7.53;3.87;;;;;12.60;97748.00;;;;16599108;28;20732;-49
2022/09/29 18:42:55;;;;;;;4.80;4.30;;;;;12.70;97759.00;;;;16608337;28;20392;-49
2022/09/29 18:50:59;;;;;;;5.97;4.10;;;;;12.50;97781.00;;;;16590931;28;20227;-50
2022/09/29 18:59:04;;;;;;;6.50;4.60;;;;;12.80;97773.00;;;;16615840;28;20226;-50
2022/09/29 19:07:11;;;;;;;8.37;5.50;;;;;12.40;97783.00;;;;16606533;28;20231;-50
2022/09/29 19:15:14;;;;;;;5.67;3.83;;;;;12.20;97794.00;;;;16593856;28;20226;-49
2022/09/29 19:23:19;;;;;;;5.90;4.40;;;;;12.20;97798.00;;;;16629548;28;20304;-49
2022/09/29 19:31:22;;;;;;;7.63;4.87;;;;;12.10;97809.00;;;;16634855;28;20199;-50
2022/09/29 19:39:28;;;;;;;7.60;4.07;;;;;12.10;97809.00;;;;16643917;28;20894;-50
2022/09/29 19:47:31;;;;;;;4.20;3.80;;;;;12.00;97825.00;;;;16644150;28;20306;-49
2022/09/29 19:55:39;;;;;;;4.97;4.50;;;;;12.00;97824.00;;;;16640777;28;20218;-49
2022/09/29 20:03:42;;;;;;;5.63;4.53;;;;;11.80;97833.00;;;;16630109;28;20227;-50
2022/09/29 20:11:48;;;;;;;5.47;3.73;;;;;11.70;97842.00;;;;16647119;28;20199;-50
2022/09/29 20:19:50;;;;;;;6.30;4.60;;;;;11.70;97839.00;;;;16652051;28;20200;-50
2022/09/29 20:27:54;;;;;;;11.97;5.27;;;;;11.50;97853.00;;;;16637555;28;20701;-49
2022/09/29 20:35:56;;;;;;;5.73;4.60;;;;;11.30;97866.00;;;;16608485;28;20829;-50
2022/09/29 20:44:00;;;;;;;7.03;4.93;;;;;11.50;97865.00;;;;16617540;28;20872;-50
2022/09/29 20:52:03;;;;;;;8.70;5.60;;;;;11.10;97883.00;;;;16618161;28;20250;-48
2022/09/29 21:00:08;;;;;;;7.77;5.83;;;;;11.10;97889.00;;;;16611506;28;20199;-50
2022/09/29 21:08:11;;;;;;;7.27;4.53;;;;;10.90;97906.00;;;;16608854;28;20634;-49
2022/09/29 21:16:15;;;;;;;6.13;5.47;;;;;10.80;97905.00;;;;16611788;28;20230;-50
2022/09/29 21:24:17;;;;;;;7.30;5.70;;;;;10.70;97915.00;;;;16628299;28;20219;-49
2022/09/29 21:32:21;;;;;;;5.60;5.00;;;;;10.60;97929.00;;;;16627572;28;20218;-49
2022/09/29 21:40:24;;;;;;;10.70;6.17;;;;;10.70;97949.00;;;;16621288;28;20203;-49
2022/09/29 21:48:28;;;;;;;5.03;4.63;;;;;10.40;97951.00;;;;16642738;28;20612;-49
2022/09/29 21:56:32;;;;;;;8.13;6.40;;;;;10.50;97948.00;;;;16621362;28;20227;-50
2022/09/29 22:04:36;;;;;;;5.97;5.47;;;;;10.10;97953.00;;;;16607166;28;20236;-50
2022/09/29 22:12:38;;;;;;;6.30;5.80;;;;;10.20;97957.00;;;;16619783;28;20230;-49
2022/09/29 22:20:42;;;;;;;8.23;6.57;;;;;10.20;97965.00;;;;16642653;28;20203;-50
2022/09/29 22:28:45;;;;;;;10.20;6.47;;;;;9.90;97983.00;;;;16625104;28;20225;-49
2022/09/29 22:36:49;;;;;;;6.23;5.07;;;;;10.10;97979.00;;;;16620692;28;20227;-51
2022/09/29 22:44:51;;;;;;;7.80;5.90;;;;;9.90;97980.00;;;;16647209;28;20228;-49
2022/09/29 22:52:56;;;;;;;6.23;5.70;;;;;9.90;97980.00;;;;16626521;28;20219;-50
2022/09/29 23:01:03;;;;;;;6.63;5.90;;;;;10.00;97979.00;;;;16626581;28;20202;-50
2022/09/29 23:09:07;;;;;;;6.90;6.20;;;;;10.10;97978.00;;;;16632979;28;20227;-50
2022/09/29 23:17:09;;;;;;;6.33;5.73;;;;;10.10;97996.00;;;;16618775;28;20225;-50
2022/09/29 23:25:13;;;;;;;7.87;6.07;;;;;10.10;98002.00;;;;16630038;28;20707;-49
2022/09/29 23:33:15;;;;;;;11.50;7.47;;;;;10.10;97986.00;;;;16632140;28;20639;-51
2022/09/29 23:41:19;;;;;;;8.53;7.73;;;;;10.20;97993.00;;;;16635238;28;20687;-49
2022/09/29 23:49:23;;;;;;;7.23;6.43;;;;;9.90;97993.00;;;;16645001;28;20238;-50
2022/09/29 23:57:26;;;;;;;6.80;6.20;;;;;10.00;98004.00;;;;16637381;28;20224;-51
